sensor_id;sensor_type;location;lat;lon;timestamp;temperature;humidity
10883;DHT22;5494;51.796;10.952;2023-12-07T00:01:14;3.40;99.90
10883;DHT22;5494;51.796;10.952;2023-12-07T00:03:43;3.50;99.90
10883;DHT22;5494;51.796;10.952;2023-12-07T00:06:11;3.50;99.90
10883;DHT22;5494;51.796;10.952;2023-12-07T00:08:39;3.50;99.90
10883;DHT22;5494;51.796;10.952;2023-12-07T00:11:07;3.40;99.90
10883;DHT22;5494;51.796;10.952;2023-12-07T00:13:37;3.30;99.90
10883;DHT22;5494;51.796;10.952;2023-12-07T00:16:05;3.40;99.90
10883;DHT22;5494;51.796;10.952;2023-12-07T00:18:34;3.30;99.90
10883;DHT22;5494;51.796;10.952;2023-12-07T00:21:02;3.30;99.90
10883;DHT22;5494;51.796;10.952;2023-12-07T00:23:30;3.30;99.90
10883;DHT22;5494;51.796;10.952;2023-12-07T00:25:58;3.30;99.90
10883;DHT22;5494;51.796;10.952;2023-12-07T00:28:26;3.30;99.90
10883;DHT22;5494;51.796;10.952;2023-12-07T00:30:55;3.40;99.90
10883;DHT22;5494;51.796;10.952;2023-12-07T00:33:26;3.40;99.90
10883;DHT22;5494;51.796;10.952;2023-12-07T00:35:54;3.40;99.90
10883;DHT22;5494;51.796;10.952;2023-12-07T00:38:22;3.40;99.90
10883;DHT22;5494;51.796;10.952;2023-12-07T00:40:50;3.40;99.90
10883;DHT22;5494;51.796;10.952;2023-12-07T00:43:18;3.40;99.90
10883;DHT22;5494;51.796;10.952;2023-12-07T00:45:46;3.50;99.90
10883;DHT22;5494;51.796;10.952;2023-12-07T00:48:15;3.50;99.90
10883;DHT22;5494;51.796;10.952;2023-12-07T00:50:43;3.50;99.90
10883;DHT22;5494;51.796;10.952;2023-12-07T00:53:11;3.50;99.90
10883;DHT22;5494;51.796;10.952;2023-12-07T00:55:39;4.10;99.90
10883;DHT22;5494;51.796;10.952;2023-12-07T00:58:07;3.50;99.90
10883;DHT22;5494;51.796;10.952;2023-12-07T01:00:35;3.50;99.90
10883;DHT22;5494;51.796;10.952;2023-12-07T01:03:03;3.50;99.90
10883;DHT22;5494;51.796;10.952;2023-12-07T01:05:33;3.50;99.90
10883;DHT22;5494;51.796;10.952;2023-12-07T01:08:01;3.60;99.90
10883;DHT22;5494;51.796;10.952;2023-12-07T01:10:29;3.50;99.90
10883;DHT22;5494;51.796;10.952;2023-12-07T01:12:58;3.50;99.90
10883;DHT22;5494;51.796;10.952;2023-12-07T01:15:27;3.50;99.90
10883;DHT22;5494;51.796;10.952;2023-12-07T01:17:55;3.50;99.90
10883;DHT22;5494;51.796;10.952;2023-12-07T01:20:23;3.40;99.90
10883;DHT22;5494;51.796;10.952;2023-12-07T01:22:52;3.50;99.90
10883;DHT22;5494;51.796;10.952;2023-12-07T01:25:20;3.50;99.90
10883;DHT22;5494;51.796;10.952;2023-12-07T01:27:49;3.50;99.90
10883;DHT22;5494;51.796;10.952;2023-12-07T01:30:17;3.50;99.90
10883;DHT22;5494;51.796;10.952;2023-12-07T01:32:45;3.50;99.90
10883;DHT22;5494;51.796;10.952;2023-12-07T01:35:14;3.50;99.90
10883;DHT22;5494;51.796;10.952;2023-12-07T01:37:42;3.60;99.90
10883;DHT22;5494;51.796;10.952;2023-12-07T01:40:11;3.50;99.90
10883;DHT22;5494;51.796;10.952;2023-12-07T01:42:49;3.50;99.90
10883;DHT22;5494;51.796;10.952;2023-12-07T01:45:17;3.60;99.90
10883;DHT22;5494;51.796;10.952;2023-12-07T01:47:46;3.50;99.90
10883;DHT22;5494;51.796;10.952;2023-12-07T01:50:17;3.50;99.90
10883;DHT22;5494;51.796;10.952;2023-12-07T01:52:54;3.60;99.90
10883;DHT22;5494;51.796;10.952;2023-12-07T01:55:26;3.70;99.90
10883;DHT22;5494;51.796;10.952;2023-12-07T01:57:56;3.70;99.90
10883;DHT22;5494;51.796;10.952;2023-12-07T02:00:26;3.60;99.90
10883;DHT22;5494;51.796;10.952;2023-12-07T02:02:55;3.50;99.90
10883;DHT22;5494;51.796;10.952;2023-12-07T02:05:24;3.50;99.90
10883;DHT22;5494;51.796;10.952;2023-12-07T02:07:54;3.40;99.90
10883;DHT22;5494;51.796;10.952;2023-12-07T02:10:22;3.50;99.90
10883;DHT22;5494;51.796;10.952;2023-12-07T02:12:52;3.50;99.90
10883;DHT22;5494;51.796;10.952;2023-12-07T02:15:21;3.40;99.90
10883;DHT22;5494;51.796;10.952;2023-12-07T02:17:55;3.40;99.90
10883;DHT22;5494;51.796;10.952;2023-12-07T02:20:34;3.60;99.90
10883;DHT22;5494;51.796;10.952;2023-12-07T02:23:07;3.60;99.90
10883;DHT22;5494;51.796;10.952;2023-12-07T02:25:43;3.60;99.90
10883;DHT22;5494;51.796;10.952;2023-12-07T02:28:17;3.60;99.90
10883;DHT22;5494;51.796;10.952;2023-12-07T02:30:45;3.60;99.90
10883;DHT22;5494;51.796;10.952;2023-12-07T02:33:14;3.60;99.90
10883;DHT22;5494;51.796;10.952;2023-12-07T02:35:42;3.50;99.90
10883;DHT22;5494;51.796;10.952;2023-12-07T02:38:10;3.50;99.90
10883;DHT22;5494;51.796;10.952;2023-12-07T02:40:40;3.60;99.90
10883;DHT22;5494;51.796;10.952;2023-12-07T02:43:09;3.50;99.90
10883;DHT22;5494;51.796;10.952;2023-12-07T02:45:39;3.60;99.90
10883;DHT22;5494;51.796;10.952;2023-12-07T02:48:07;3.50;99.90
10883;DHT22;5494;51.796;10.952;2023-12-07T02:50:35;3.60;99.90
10883;DHT22;5494;51.796;10.952;2023-12-07T02:53:03;3.60;99.90
10883;DHT22;5494;51.796;10.952;2023-12-07T02:55:31;3.40;99.90
10883;DHT22;5494;51.796;10.952;2023-12-07T02:57:59;3.50;99.90
10883;DHT22;5494;51.796;10.952;2023-12-07T03:00:27;3.50;99.90
10883;DHT22;5494;51.796;10.952;2023-12-07T03:02:57;3.50;99.90
10883;DHT22;5494;51.796;10.952;2023-12-07T03:05:25;3.60;99.90
10883;DHT22;5494;51.796;10.952;2023-12-07T03:07:52;3.60;99.90
10883;DHT22;5494;51.796;10.952;2023-12-07T03:10:20;3.50;99.90
10883;DHT22;5494;51.796;10.952;2023-12-07T03:12:48;3.50;99.90
10883;DHT22;5494;51.796;10.952;2023-12-07T03:15:16;3.50;99.90
10883;DHT22;5494;51.796;10.952;2023-12-07T03:17:44;3.50;99.90
10883;DHT22;5494;51.796;10.952;2023-12-07T03:20:14;3.60;99.90
10883;DHT22;5494;51.796;10.952;2023-12-07T03:22:42;3.60;99.90
10883;DHT22;5494;51.796;10.952;2023-12-07T03:25:11;3.50;99.90
10883;DHT22;5494;51.796;10.952;2023-12-07T03:27:39;3.50;99.90
10883;DHT22;5494;51.796;10.952;2023-12-07T03:30:08;3.50;99.90
10883;DHT22;5494;51.796;10.952;2023-12-07T03:32:36;3.50;99.90
10883;DHT22;5494;51.796;10.952;2023-12-07T03:35:05;3.60;99.90
10883;DHT22;5494;51.796;10.952;2023-12-07T03:37:35;3.60;99.90
10883;DHT22;5494;51.796;10.952;2023-12-07T03:40:04;3.50;99.90
10883;DHT22;5494;51.796;10.952;2023-12-07T03:42:33;3.50;99.90
10883;DHT22;5494;51.796;10.952;2023-12-07T03:45:21;3.50;99.90
10883;DHT22;5494;51.796;10.952;2023-12-07T03:47:49;3.50;99.90
10883;DHT22;5494;51.796;10.952;2023-12-07T03:50:18;3.50;99.90
10883;DHT22;5494;51.796;10.952;2023-12-07T03:52:47;3.50;99.90
10883;DHT22;5494;51.796;10.952;2023-12-07T03:55:15;3.50;99.90
10883;DHT22;5494;51.796;10.952;2023-12-07T03:57:43;3.40;99.90
10883;DHT22;5494;51.796;10.952;2023-12-07T04:00:12;3.50;99.90
10883;DHT22;5494;51.796;10.952;2023-12-07T04:02:42;3.50;99.90
10883;DHT22;5494;51.796;10.952;2023-12-07T04:05:10;3.50;99.90
10883;DHT22;5494;51.796;10.952;2023-12-07T04:07:39;3.40;99.90
10883;DHT22;5494;51.796;10.952;2023-12-07T04:10:10;3.40;99.90
10883;DHT22;5494;51.796;10.952;2023-12-07T04:12:38;3.40;99.90
10883;DHT22;5494;51.796;10.952;2023-12-07T04:15:07;3.50;99.90
10883;DHT22;5494;51.796;10.952;2023-12-07T04:17:36;3.50;99.90
10883;DHT22;5494;51.796;10.952;2023-12-07T04:20:04;3.40;99.90
10883;DHT22;5494;51.796;10.952;2023-12-07T04:22:34;3.50;99.90
10883;DHT22;5494;51.796;10.952;2023-12-07T04:25:02;3.50;99.90
10883;DHT22;5494;51.796;10.952;2023-12-07T04:27:32;3.50;99.90
10883;DHT22;5494;51.796;10.952;2023-12-07T04:30:00;3.40;99.90
10883;DHT22;5494;51.796;10.952;2023-12-07T04:32:28;3.50;99.90
10883;DHT22;5494;51.796;10.952;2023-12-07T04:34:56;3.50;99.90
10883;DHT22;5494;51.796;10.952;2023-12-07T04:37:24;3.60;99.90
10883;DHT22;5494;51.796;10.952;2023-12-07T04:39:52;3.60;99.90
10883;DHT22;5494;51.796;10.952;2023-12-07T04:42:20;3.60;99.90
10883;DHT22;5494;51.796;10.952;2023-12-07T04:44:50;3.50;99.90
10883;DHT22;5494;51.796;10.952;2023-12-07T04:47:18;3.50;99.90
10883;DHT22;5494;51.796;10.952;2023-12-07T04:49:46;3.60;99.90
10883;DHT22;5494;51.796;10.952;2023-12-07T04:52:14;3.50;99.90
10883;DHT22;5494;51.796;10.952;2023-12-07T04:54:43;3.60;99.90
10883;DHT22;5494;51.796;10.952;2023-12-07T04:57:11;3.60;99.90
10883;DHT22;5494;51.796;10.952;2023-12-07T04:59:40;3.60;99.90
10883;DHT22;5494;51.796;10.952;2023-12-07T05:02:09;3.60;99.90
10883;DHT22;5494;51.796;10.952;2023-12-07T05:04:37;3.60;99.90
10883;DHT22;5494;51.796;10.952;2023-12-07T05:07:05;3.60;99.90
10883;DHT22;5494;51.796;10.952;2023-12-07T05:09:34;3.60;99.90
10883;DHT22;5494;51.796;10.952;2023-12-07T05:12:05;5.10;99.90
10883;DHT22;5494;51.796;10.952;2023-12-07T05:14:33;3.60;99.90
10883;DHT22;5494;51.796;10.952;2023-12-07T05:17:03;3.60;99.90
10883;DHT22;5494;51.796;10.952;2023-12-07T05:19:33;3.60;99.90
10883;DHT22;5494;51.796;10.952;2023-12-07T05:22:01;3.60;99.90
10883;DHT22;5494;51.796;10.952;2023-12-07T05:24:29;3.60;99.90
10883;DHT22;5494;51.796;10.952;2023-12-07T05:27:01;3.60;99.90
10883;DHT22;5494;51.796;10.952;2023-12-07T05:29:30;3.60;99.90
10883;DHT22;5494;51.796;10.952;2023-12-07T05:31:58;3.50;99.90
10883;DHT22;5494;51.796;10.952;2023-12-07T05:34:26;3.50;99.90
10883;DHT22;5494;51.796;10.952;2023-12-07T05:36:55;3.50;99.90
10883;DHT22;5494;51.796;10.952;2023-12-07T05:39:23;3.50;99.90
10883;DHT22;5494;51.796;10.952;2023-12-07T05:41:52;3.50;99.90
10883;DHT22;5494;51.796;10.952;2023-12-07T05:44:20;3.50;99.90
10883;DHT22;5494;51.796;10.952;2023-12-07T05:46:49;3.50;99.90
10883;DHT22;5494;51.796;10.952;2023-12-07T05:49:17;3.50;99.90
10883;DHT22;5494;51.796;10.952;2023-12-07T05:51:45;3.60;99.90
10883;DHT22;5494;51.796;10.952;2023-12-07T05:54:14;3.50;99.90
10883;DHT22;5494;51.796;10.952;2023-12-07T05:56:42;3.50;99.90
10883;DHT22;5494;51.796;10.952;2023-12-07T05:59:11;3.60;99.90
10883;DHT22;5494;51.796;10.952;2023-12-07T06:01:39;3.60;99.90
10883;DHT22;5494;51.796;10.952;2023-12-07T06:04:08;3.60;99.90
10883;DHT22;5494;51.796;10.952;2023-12-07T06:06:37;3.60;99.90
10883;DHT22;5494;51.796;10.952;2023-12-07T06:09:05;3.70;99.90
10883;DHT22;5494;51.796;10.952;2023-12-07T06:11:36;3.70;99.90
10883;DHT22;5494;51.796;10.952;2023-12-07T06:14:04;3.70;99.90
10883;DHT22;5494;51.796;10.952;2023-12-07T06:16:33;3.70;99.90
10883;DHT22;5494;51.796;10.952;2023-12-07T06:19:02;3.60;99.90
10883;DHT22;5494;51.796;10.952;2023-12-07T06:21:30;3.60;99.90
10883;DHT22;5494;51.796;10.952;2023-12-07T06:23:59;3.60;99.90
10883;DHT22;5494;51.796;10.952;2023-12-07T06:26:27;3.50;99.90
10883;DHT22;5494;51.796;10.952;2023-12-07T06:28:57;3.50;99.90
10883;DHT22;5494;51.796;10.952;2023-12-07T06:31:25;3.50;99.90
10883;DHT22;5494;51.796;10.952;2023-12-07T06:33:53;3.50;99.90
10883;DHT22;5494;51.796;10.952;2023-12-07T06:36:22;3.50;99.90
10883;DHT22;5494;51.796;10.952;2023-12-07T06:38:52;3.50;99.90
10883;DHT22;5494;51.796;10.952;2023-12-07T06:41:21;3.50;99.90
10883;DHT22;5494;51.796;10.952;2023-12-07T06:43:50;3.50;99.90
10883;DHT22;5494;51.796;10.952;2023-12-07T06:46:20;3.40;99.90
10883;DHT22;5494;51.796;10.952;2023-12-07T06:48:48;3.50;99.90
10883;DHT22;5494;51.796;10.952;2023-12-07T06:51:16;3.50;99.90
10883;DHT22;5494;51.796;10.952;2023-12-07T06:53:44;3.50;99.90
10883;DHT22;5494;51.796;10.952;2023-12-07T06:56:13;3.50;99.90
10883;DHT22;5494;51.796;10.952;2023-12-07T06:58:41;3.40;99.90
10883;DHT22;5494;51.796;10.952;2023-12-07T07:01:09;3.40;99.90
10883;DHT22;5494;51.796;10.952;2023-12-07T07:03:39;3.40;99.90
10883;DHT22;5494;51.796;10.952;2023-12-07T07:06:07;3.40;99.90
10883;DHT22;5494;51.796;10.952;2023-12-07T07:08:35;3.40;99.90
10883;DHT22;5494;51.796;10.952;2023-12-07T07:11:11;3.40;99.90
10883;DHT22;5494;51.796;10.952;2023-12-07T07:13:40;3.40;99.90
10883;DHT22;5494;51.796;10.952;2023-12-07T07:16:09;3.50;99.90
10883;DHT22;5494;51.796;10.952;2023-12-07T07:18:39;3.50;99.90
10883;DHT22;5494;51.796;10.952;2023-12-07T07:21:07;3.40;99.90
10883;DHT22;5494;51.796;10.952;2023-12-07T07:23:35;3.50;99.90
10883;DHT22;5494;51.796;10.952;2023-12-07T07:26:04;3.50;99.90
10883;DHT22;5494;51.796;10.952;2023-12-07T07:28:32;3.40;99.90
10883;DHT22;5494;51.796;10.952;2023-12-07T07:31:01;3.40;99.90
10883;DHT22;5494;51.796;10.952;2023-12-07T07:33:30;3.40;99.90
10883;DHT22;5494;51.796;10.952;2023-12-07T07:36:00;3.50;99.90
10883;DHT22;5494;51.796;10.952;2023-12-07T07:38:28;3.50;99.90
10883;DHT22;5494;51.796;10.952;2023-12-07T07:40:56;3.60;99.90
10883;DHT22;5494;51.796;10.952;2023-12-07T07:43:24;3.50;99.90
10883;DHT22;5494;51.796;10.952;2023-12-07T07:45:52;3.50;99.90
10883;DHT22;5494;51.796;10.952;2023-12-07T07:48:20;3.50;99.90
10883;DHT22;5494;51.796;10.952;2023-12-07T07:50:48;3.50;99.90
10883;DHT22;5494;51.796;10.952;2023-12-07T07:53:17;3.50;99.90
10883;DHT22;5494;51.796;10.952;2023-12-07T07:55:46;3.50;99.90
10883;DHT22;5494;51.796;10.952;2023-12-07T07:58:14;3.50;99.90
10883;DHT22;5494;51.796;10.952;2023-12-07T08:00:42;3.60;99.90
10883;DHT22;5494;51.796;10.952;2023-12-07T08:03:10;3.60;99.90
10883;DHT22;5494;51.796;10.952;2023-12-07T08:05:38;3.50;99.90
10883;DHT22;5494;51.796;10.952;2023-12-07T08:08:06;3.60;99.90
10883;DHT22;5494;51.796;10.952;2023-12-07T08:10:37;3.60;99.90
10883;DHT22;5494;51.796;10.952;2023-12-07T08:13:21;3.60;99.90
10883;DHT22;5494;51.796;10.952;2023-12-07T08:15:49;3.60;99.90
10883;DHT22;5494;51.796;10.952;2023-12-07T08:18:23;3.60;99.90
10883;DHT22;5494;51.796;10.952;2023-12-07T08:20:52;3.60;99.90
10883;DHT22;5494;51.796;10.952;2023-12-07T08:23:21;3.70;99.90
10883;DHT22;5494;51.796;10.952;2023-12-07T08:25:50;3.60;99.90
10883;DHT22;5494;51.796;10.952;2023-12-07T08:28:18;3.60;99.90
10883;DHT22;5494;51.796;10.952;2023-12-07T08:30:46;3.60;99.90
10883;DHT22;5494;51.796;10.952;2023-12-07T08:33:14;3.70;99.90
10883;DHT22;5494;51.796;10.952;2023-12-07T08:35:43;3.70;99.90
10883;DHT22;5494;51.796;10.952;2023-12-07T08:38:10;3.70;99.90
10883;DHT22;5494;51.796;10.952;2023-12-07T08:40:39;3.80;99.90
10883;DHT22;5494;51.796;10.952;2023-12-07T08:43:10;3.80;99.90
10883;DHT22;5494;51.796;10.952;2023-12-07T08:45:38;3.80;99.90
10883;DHT22;5494;51.796;10.952;2023-12-07T08:48:06;3.80;99.90
10883;DHT22;5494;51.796;10.952;2023-12-07T08:50:38;3.80;99.90
10883;DHT22;5494;51.796;10.952;2023-12-07T08:53:05;3.80;99.90
10883;DHT22;5494;51.796;10.952;2023-12-07T08:55:34;3.80;99.90
10883;DHT22;5494;51.796;10.952;2023-12-07T08:58:02;3.90;99.90
10883;DHT22;5494;51.796;10.952;2023-12-07T09:00:32;3.90;99.90
10883;DHT22;5494;51.796;10.952;2023-12-07T09:03:00;3.90;99.90
10883;DHT22;5494;51.796;10.952;2023-12-07T09:05:29;3.90;99.90
10883;DHT22;5494;51.796;10.952;2023-12-07T09:07:58;4.00;99.90
10883;DHT22;5494;51.796;10.952;2023-12-07T09:10:26;4.00;99.90
10883;DHT22;5494;51.796;10.952;2023-12-07T09:12:54;2.70;99.90
10883;DHT22;5494;51.796;10.952;2023-12-07T09:15:23;4.20;99.90
10883;DHT22;5494;51.796;10.952;2023-12-07T09:17:52;4.20;99.90
10883;DHT22;5494;51.796;10.952;2023-12-07T09:20:21;4.10;99.90
10883;DHT22;5494;51.796;10.952;2023-12-07T09:22:50;4.10;99.90
10883;DHT22;5494;51.796;10.952;2023-12-07T09:25:18;4.10;99.90
10883;DHT22;5494;51.796;10.952;2023-12-07T09:27:49;4.20;99.90
10883;DHT22;5494;51.796;10.952;2023-12-07T09:30:18;4.20;99.90
10883;DHT22;5494;51.796;10.952;2023-12-07T09:32:46;4.20;99.90
10883;DHT22;5494;51.796;10.952;2023-12-07T09:35:15;4.30;99.90
10883;DHT22;5494;51.796;10.952;2023-12-07T09:37:47;4.30;99.90
10883;DHT22;5494;51.796;10.952;2023-12-07T09:40:17;4.30;99.90
10883;DHT22;5494;51.796;10.952;2023-12-07T09:42:48;4.40;99.90
10883;DHT22;5494;51.796;10.952;2023-12-07T09:45:18;4.30;99.90
10883;DHT22;5494;51.796;10.952;2023-12-07T09:47:50;4.40;99.90
10883;DHT22;5494;51.796;10.952;2023-12-07T09:50:21;4.40;99.90
10883;DHT22;5494;51.796;10.952;2023-12-07T09:52:51;4.50;99.90
10883;DHT22;5494;51.796;10.952;2023-12-07T09:55:34;4.50;99.90
10883;DHT22;5494;51.796;10.952;2023-12-07T09:58:04;4.60;99.90
10883;DHT22;5494;51.796;10.952;2023-12-07T10:00:35;4.60;99.90
10883;DHT22;5494;51.796;10.952;2023-12-07T10:03:05;4.60;99.90
10883;DHT22;5494;51.796;10.952;2023-12-07T10:05:53;4.60;99.90
10883;DHT22;5494;51.796;10.952;2023-12-07T10:08:26;4.70;99.90
10883;DHT22;5494;51.796;10.952;2023-12-07T10:11:02;4.80;99.90
10883;DHT22;5494;51.796;10.952;2023-12-07T10:13:32;4.70;99.90
10883;DHT22;5494;51.796;10.952;2023-12-07T10:16:08;4.80;99.90
10883;DHT22;5494;51.796;10.952;2023-12-07T10:18:39;4.80;99.90
10883;DHT22;5494;51.796;10.952;2023-12-07T10:21:12;4.70;94.00
10883;DHT22;5494;51.796;10.952;2023-12-07T10:23:42;4.80;65.60
10883;DHT22;5494;51.796;10.952;2023-12-07T10:26:16;5.00;43.30
10883;DHT22;5494;51.796;10.952;2023-12-07T10:28:48;4.90;38.90
10883;DHT22;5494;51.796;10.952;2023-12-07T10:31:20;4.90;68.00
10883;DHT22;5494;51.796;10.952;2023-12-07T10:33:49;5.00;46.40
10883;DHT22;5494;51.796;10.952;2023-12-07T10:36:19;5.00;68.00
10883;DHT22;5494;51.796;10.952;2023-12-07T10:38:47;5.00;1.00
10883;DHT22;5494;51.796;10.952;2023-12-07T10:41:18;5.10;1.00
10883;DHT22;5494;51.796;10.952;2023-12-07T10:43:49;5.10;1.00
10883;DHT22;5494;51.796;10.952;2023-12-07T10:46:20;5.20;1.00
10883;DHT22;5494;51.796;10.952;2023-12-07T10:48:54;5.20;1.00
10883;DHT22;5494;51.796;10.952;2023-12-07T10:51:31;5.10;1.00
10883;DHT22;5494;51.796;10.952;2023-12-07T10:54:07;5.10;99.90
10883;DHT22;5494;51.796;10.952;2023-12-07T10:56:39;5.00;99.90
10883;DHT22;5494;51.796;10.952;2023-12-07T10:59:10;5.00;99.90
10883;DHT22;5494;51.796;10.952;2023-12-07T11:01:57;5.10;1.00
10883;DHT22;5494;51.796;10.952;2023-12-07T11:04:26;5.10;99.90
10883;DHT22;5494;51.796;10.952;2023-12-07T11:07:04;5.10;99.90
10883;DHT22;5494;51.796;10.952;2023-12-07T11:09:39;5.10;99.90
10883;DHT22;5494;51.796;10.952;2023-12-07T11:12:18;5.20;99.90
10883;DHT22;5494;51.796;10.952;2023-12-07T11:14:52;5.20;1.00
10883;DHT22;5494;51.796;10.952;2023-12-07T11:17:21;5.20;99.90
10883;DHT22;5494;51.796;10.952;2023-12-07T11:19:49;5.20;99.90
10883;DHT22;5494;51.796;10.952;2023-12-07T11:22:20;5.10;1.00
10883;DHT22;5494;51.796;10.952;2023-12-07T11:24:54;5.10;1.00
10883;DHT22;5494;51.796;10.952;2023-12-07T11:27:24;5.10;1.00
10883;DHT22;5494;51.796;10.952;2023-12-07T11:29:53;5.00;1.00
10883;DHT22;5494;51.796;10.952;2023-12-07T11:32:21;5.00;1.00
10883;DHT22;5494;51.796;10.952;2023-12-07T11:34:59;5.00;1.00
10883;DHT22;5494;51.796;10.952;2023-12-07T11:38:04;5.00;99.90
10883;DHT22;5494;51.796;10.952;2023-12-07T11:40:37;5.00;99.90
10883;DHT22;5494;51.796;10.952;2023-12-07T11:43:08;4.90;99.90
10883;DHT22;5494;51.796;10.952;2023-12-07T11:45:48;4.90;1.00
10883;DHT22;5494;51.796;10.952;2023-12-07T11:48:18;4.90;1.00
10883;DHT22;5494;51.796;10.952;2023-12-07T11:50:58;4.90;1.00
10883;DHT22;5494;51.796;10.952;2023-12-07T11:53:29;4.90;99.90
10883;DHT22;5494;51.796;10.952;2023-12-07T11:55:58;4.90;1.00
10883;DHT22;5494;51.796;10.952;2023-12-07T11:58:28;4.80;99.90
10883;DHT22;5494;51.796;10.952;2023-12-07T12:01:00;4.80;1.00
10883;DHT22;5494;51.796;10.952;2023-12-07T12:03:30;4.90;99.90
10883;DHT22;5494;51.796;10.952;2023-12-07T12:06:01;4.90;1.00
10883;DHT22;5494;51.796;10.952;2023-12-07T12:08:33;4.90;99.90
10883;DHT22;5494;51.796;10.952;2023-12-07T12:11:01;4.90;99.90
10883;DHT22;5494;51.796;10.952;2023-12-07T12:13:31;5.00;1.00
10883;DHT22;5494;51.796;10.952;2023-12-07T12:16:01;5.00;1.00
10883;DHT22;5494;51.796;10.952;2023-12-07T12:18:33;5.10;99.90
10883;DHT22;5494;51.796;10.952;2023-12-07T12:21:03;5.20;1.00
10883;DHT22;5494;51.796;10.952;2023-12-07T12:23:32;5.40;1.00
10883;DHT22;5494;51.796;10.952;2023-12-07T12:26:01;5.40;1.00
10883;DHT22;5494;51.796;10.952;2023-12-07T12:28:30;5.40;1.00
10883;DHT22;5494;51.796;10.952;2023-12-07T12:30:59;5.60;99.90
10883;DHT22;5494;51.796;10.952;2023-12-07T12:33:28;5.70;99.90
10883;DHT22;5494;51.796;10.952;2023-12-07T12:36:04;5.60;99.90
10883;DHT22;5494;51.796;10.952;2023-12-07T12:38:36;5.60;99.90
10883;DHT22;5494;51.796;10.952;2023-12-07T12:41:10;5.60;99.90
10883;DHT22;5494;51.796;10.952;2023-12-07T12:43:40;5.60;99.90
10883;DHT22;5494;51.796;10.952;2023-12-07T12:46:09;5.50;99.90
10883;DHT22;5494;51.796;10.952;2023-12-07T12:48:52;5.50;99.90
10883;DHT22;5494;51.796;10.952;2023-12-07T12:51:24;5.40;1.00
10883;DHT22;5494;51.796;10.952;2023-12-07T12:53:56;5.40;1.00
10883;DHT22;5494;51.796;10.952;2023-12-07T12:56:27;5.30;99.90
10883;DHT22;5494;51.796;10.952;2023-12-07T12:58:55;5.30;1.00
10883;DHT22;5494;51.796;10.952;2023-12-07T13:01:31;5.30;1.00
10883;DHT22;5494;51.796;10.952;2023-12-07T13:04:00;5.30;99.90
10883;DHT22;5494;51.796;10.952;2023-12-07T13:06:28;5.20;99.90
10883;DHT22;5494;51.796;10.952;2023-12-07T13:08:57;5.10;1.00
10883;DHT22;5494;51.796;10.952;2023-12-07T13:11:26;5.10;99.90
10883;DHT22;5494;51.796;10.952;2023-12-07T13:13:54;5.00;99.90
10883;DHT22;5494;51.796;10.952;2023-12-07T13:16:22;5.00;99.90
10883;DHT22;5494;51.796;10.952;2023-12-07T13:18:50;5.00;99.90
10883;DHT22;5494;51.796;10.952;2023-12-07T13:21:20;4.90;99.90
10883;DHT22;5494;51.796;10.952;2023-12-07T13:23:49;4.90;99.90
10883;DHT22;5494;51.796;10.952;2023-12-07T13:26:19;4.80;1.00
10883;DHT22;5494;51.796;10.952;2023-12-07T13:28:47;4.80;99.90
10883;DHT22;5494;51.796;10.952;2023-12-07T13:31:15;4.70;1.00
10883;DHT22;5494;51.796;10.952;2023-12-07T13:33:43;4.70;99.90
10883;DHT22;5494;51.796;10.952;2023-12-07T13:36:22;4.80;1.00
10883;DHT22;5494;51.796;10.952;2023-12-07T13:38:52;4.80;1.00
10883;DHT22;5494;51.796;10.952;2023-12-07T13:41:22;4.70;99.90
10883;DHT22;5494;51.796;10.952;2023-12-07T13:43:50;4.70;99.90
10883;DHT22;5494;51.796;10.952;2023-12-07T13:46:18;4.70;99.90
10883;DHT22;5494;51.796;10.952;2023-12-07T13:48:48;4.70;1.00
10883;DHT22;5494;51.796;10.952;2023-12-07T13:51:16;4.60;99.90
10883;DHT22;5494;51.796;10.952;2023-12-07T13:53:45;4.60;99.90
10883;DHT22;5494;51.796;10.952;2023-12-07T13:56:13;4.60;99.90
10883;DHT22;5494;51.796;10.952;2023-12-07T13:58:43;4.70;1.00
10883;DHT22;5494;51.796;10.952;2023-12-07T14:01:11;4.60;99.90
10883;DHT22;5494;51.796;10.952;2023-12-07T14:03:38;4.50;99.90
10883;DHT22;5494;51.796;10.952;2023-12-07T14:06:08;4.50;1.00
10883;DHT22;5494;51.796;10.952;2023-12-07T14:08:47;4.50;1.00
10883;DHT22;5494;51.796;10.952;2023-12-07T14:11:16;4.40;1.00
10883;DHT22;5494;51.796;10.952;2023-12-07T14:13:45;4.40;1.00
10883;DHT22;5494;51.796;10.952;2023-12-07T14:16:15;4.40;24.60
10883;DHT22;5494;51.796;10.952;2023-12-07T14:18:57;4.30;99.90
10883;DHT22;5494;51.796;10.952;2023-12-07T14:21:41;4.30;99.90
10883;DHT22;5494;51.796;10.952;2023-12-07T14:24:24;4.20;99.90
10883;DHT22;5494;51.796;10.952;2023-12-07T14:26:53;4.20;99.90
10883;DHT22;5494;51.796;10.952;2023-12-07T14:29:23;4.20;99.90
10883;DHT22;5494;51.796;10.952;2023-12-07T14:31:54;4.10;99.90
10883;DHT22;5494;51.796;10.952;2023-12-07T14:34:23;4.10;99.90
10883;DHT22;5494;51.796;10.952;2023-12-07T14:37:01;4.00;1.00
10883;DHT22;5494;51.796;10.952;2023-12-07T14:39:33;3.90;1.00
10883;DHT22;5494;51.796;10.952;2023-12-07T14:42:01;3.80;1.00
10883;DHT22;5494;51.796;10.952;2023-12-07T14:44:33;3.70;42.70
10883;DHT22;5494;51.796;10.952;2023-12-07T14:47:04;3.60;99.90
10883;DHT22;5494;51.796;10.952;2023-12-07T14:49:32;3.50;1.00
10883;DHT22;5494;51.796;10.952;2023-12-07T14:52:00;3.40;26.90
10883;DHT22;5494;51.796;10.952;2023-12-07T14:54:28;3.50;74.80
10883;DHT22;5494;51.796;10.952;2023-12-07T14:56:59;3.50;1.00
10883;DHT22;5494;51.796;10.952;2023-12-07T14:59:28;3.40;1.00
10883;DHT22;5494;51.796;10.952;2023-12-07T15:01:57;3.30;99.90
10883;DHT22;5494;51.796;10.952;2023-12-07T15:04:27;3.20;1.00
10883;DHT22;5494;51.796;10.952;2023-12-07T15:07:00;3.10;1.00
10883;DHT22;5494;51.796;10.952;2023-12-07T15:09:30;3.10;99.90
10883;DHT22;5494;51.796;10.952;2023-12-07T15:12:01;3.00;99.90
10883;DHT22;5494;51.796;10.952;2023-12-07T15:14:30;3.00;1.00
10883;DHT22;5494;51.796;10.952;2023-12-07T15:17:06;3.00;1.00
10883;DHT22;5494;51.796;10.952;2023-12-07T15:19:36;3.00;79.50
10883;DHT22;5494;51.796;10.952;2023-12-07T15:22:06;3.00;99.90
10883;DHT22;5494;51.796;10.952;2023-12-07T15:24:37;3.00;1.00
10883;DHT22;5494;51.796;10.952;2023-12-07T15:27:07;3.00;1.00
10883;DHT22;5494;51.796;10.952;2023-12-07T15:29:35;3.00;1.00
10883;DHT22;5494;51.796;10.952;2023-12-07T15:32:08;2.90;99.90
10883;DHT22;5494;51.796;10.952;2023-12-07T15:34:37;2.90;99.90
10883;DHT22;5494;51.796;10.952;2023-12-07T15:37:09;2.80;99.90
10883;DHT22;5494;51.796;10.952;2023-12-07T15:39:41;2.70;99.90
10883;DHT22;5494;51.796;10.952;2023-12-07T15:42:11;2.60;1.00
10883;DHT22;5494;51.796;10.952;2023-12-07T15:44:39;2.50;1.00
10883;DHT22;5494;51.796;10.952;2023-12-07T15:47:09;2.30;99.90
10883;DHT22;5494;51.796;10.952;2023-12-07T15:49:40;2.20;99.90
10883;DHT22;5494;51.796;10.952;2023-12-07T15:52:09;2.10;99.90
10883;DHT22;5494;51.796;10.952;2023-12-07T15:54:37;2.00;1.00
10883;DHT22;5494;51.796;10.952;2023-12-07T15:57:10;1.90;1.00
10883;DHT22;5494;51.796;10.952;2023-12-07T15:59:38;1.90;1.00
10883;DHT22;5494;51.796;10.952;2023-12-07T16:02:09;1.80;1.00
10883;DHT22;5494;51.796;10.952;2023-12-07T16:04:39;1.70;1.00